Time;durP1;ratioP1;P1;durP2;ratioP2;P2;SDS_P1;SDS_P2;PMS_P1;PMS_P2;Temp;Humidity;BMP_temperature;BMP_pressure;BME280_temperature;BME280_humidity;BME280_pressure;Samples;Min_cycle;Max_cycle;Signal;HPM_P1;HPM_P2
2023/09/10 00:02:10;;;;;;;22.70;17.90;;;;;;;-128.00;-1.00;-1.00;105667;1250;1004617;-81
2023/09/10 00:04:37;;;;;;;23.90;17.30;;;;;;;-128.00;-1.00;-1.00;105582;1250;1005763;-80
2023/09/10 00:07:03;;;;;;;26.60;18.30;;;;;;;-128.00;-1.00;-1.00;105533;1252;1005555;-80
2023/09/10 00:09:30;;;;;;;27.10;17.10;;;;;;;-128.00;-1.00;-1.00;105509;1252;1004879;-80
2023/09/10 00:11:56;;;;;;;20.70;17.50;;;;;;;-128.00;-1.00;-1.00;105505;1253;1004377;-80
2023/09/10 00:14:23;;;;;;;25.60;17.50;;;;;;;-128.00;-1.00;-1.00;105572;1252;1004342;-80
2023/09/10 00:16:49;;;;;;;26.00;16.80;;;;;;;-128.00;-1.00;-1.00;105542;1252;1003641;-80
2023/09/10 00:19:15;;;;;;;21.70;17.10;;;;;;;-128.00;-1.00;-1.00;105534;1252;1004304;-80
2023/09/10 00:21:42;;;;;;;25.10;17.90;;;;;;;-128.00;-1.00;-1.00;105537;1252;1004096;-80
2023/09/10 00:24:10;;;;;;;21.90;17.30;;;;;;;-128.00;-1.00;-1.00;105533;1252;1004426;-80
2023/09/10 00:26:37;;;;;;;23.90;18.00;;;;;;;-128.00;-1.00;-1.00;105422;1252;1004748;-81
2023/09/10 00:29:03;;;;;;;27.90;19.50;;;;;;;-128.00;-1.00;-1.00;105511;1253;1003552;-81
2023/09/10 00:31:34;;;;;;;26.40;17.80;;;;;;;-128.00;-1.00;-1.00;105556;1252;1004141;-80
2023/09/10 00:34:02;;;;;;;25.70;18.10;;;;;;;-128.00;-1.00;-1.00;105552;1253;1060470;-80
2023/09/10 00:36:28;;;;;;;25.70;18.70;;;;;;;-128.00;-1.00;-1.00;105493;1252;1004331;-81
2023/09/10 00:38:55;;;;;;;23.70;18.00;;;;;;;-128.00;-1.00;-1.00;105457;1252;1004269;-80
2023/09/10 00:41:21;;;;;;;21.50;17.10;;;;;;;-128.00;-1.00;-1.00;105564;1252;1004483;-80
2023/09/10 00:43:49;;;;;;;23.70;19.00;;;;;;;-128.00;-1.00;-1.00;105576;1252;1004864;-80
2023/09/10 00:46:15;;;;;;;25.10;18.20;;;;;;;-128.00;-1.00;-1.00;105562;1250;1003647;-80
2023/09/10 00:48:42;;;;;;;27.20;18.00;;;;;;;-128.00;-1.00;-1.00;105612;1250;1004354;-80
2023/09/10 00:51:08;;;;;;;28.00;18.50;;;;;;;-128.00;-1.00;-1.00;105651;1250;1004569;-80
2023/09/10 00:53:34;;;;;;;28.50;19.50;;;;;;;-128.00;-1.00;-1.00;105710;1250;1004799;-80
2023/09/10 00:56:01;;;;;;;26.30;19.10;;;;;;;-128.00;-1.00;-1.00;105661;1250;1004245;-80
2023/09/10 00:58:27;;;;;;;25.40;19.30;;;;;;;-128.00;-1.00;-1.00;105651;1250;1004049;-81
2023/09/10 01:00:54;;;;;;;31.10;19.80;;;;;;;-128.00;-1.00;-1.00;105640;1251;1004745;-80
2023/09/10 01:03:20;;;;;;;26.60;20.10;;;;;;;-128.00;-1.00;-1.00;105635;1254;1003513;-80
2023/09/10 01:05:47;;;;;;;28.10;18.50;;;;;;;-128.00;-1.00;-1.00;105554;1251;1004388;-80
2023/09/10 01:08:13;;;;;;;32.40;19.70;;;;;;;-128.00;-1.00;-1.00;105523;1252;1003379;-80
2023/09/10 01:10:58;;;;;;;26.00;19.50;;;;;;;-128.00;-1.00;-1.00;105329;1252;1004790;-80
2023/09/10 01:14:11;;;;;;;28.20;20.40;;;;;;;-128.00;-1.00;-1.00;105423;1252;1047141;-80
2023/09/10 01:16:44;;;;;;;27.60;19.20;;;;;;;-128.00;-1.00;-1.00;105719;1252;1046509;-80
2023/09/10 01:19:38;;;;;;;27.00;20.50;;;;;;;-128.00;-1.00;-1.00;105585;1252;1062149;-80
2023/09/10 01:22:20;;;;;;;27.00;19.70;;;;;;;-128.00;-1.00;-1.00;105520;1252;1059060;-80
2023/09/10 01:24:47;;;;;;;22.90;17.30;;;;;;;-128.00;-1.00;-1.00;105423;1253;1059161;-80
2023/09/10 01:27:15;;;;;;;26.50;19.80;;;;;;;-128.00;-1.00;-1.00;105514;1252;1004399;-80
2023/09/10 01:29:42;;;;;;;26.30;19.80;;;;;;;-128.00;-1.00;-1.00;105567;1252;1004686;-80
2023/09/10 01:32:14;;;;;;;23.30;18.10;;;;;;;-128.00;-1.00;-1.00;105603;1252;1003355;-80
2023/09/10 01:34:43;;;;;;;28.90;19.90;;;;;;;-128.00;-1.00;-1.00;105537;1252;1056949;-80
2023/09/10 01:37:32;;;;;;;25.30;18.20;;;;;;;-128.00;-1.00;-1.00;105567;1252;1060502;-80
2023/09/10 01:39:58;;;;;;;;;;;;;;;-128.00;-1.00;-1.00;105575;1252;1046171;-80
2023/09/10 01:42:25;;;;;;;22.60;17.30;;;;;;;-128.00;-1.00;-1.00;105425;1252;1003515;-81
2023/09/10 01:44:52;;;;;;;24.60;17.50;;;;;;;-128.00;-1.00;-1.00;105543;1256;1006313;-80
2023/09/10 01:47:18;;;;;;;26.20;19.00;;;;;;;-128.00;-1.00;-1.00;105519;1250;1004626;-80
2023/09/10 01:49:44;;;;;;;23.50;17.80;;;;;;;-128.00;-1.00;-1.00;105524;1251;1004347;-80
2023/09/10 01:52:11;;;;;;;24.90;18.20;;;;;;;-128.00;-1.00;-1.00;105506;1251;1004384;-80
2023/09/10 01:54:37;;;;;;;23.70;17.10;;;;;;;-128.00;-1.00;-1.00;105632;1250;1004352;-80
2023/09/10 01:57:04;;;;;;;24.50;17.30;;;;;;;-128.00;-1.00;-1.00;105669;1250;1004953;-80
2023/09/10 01:59:30;;;;;;;27.90;19.90;;;;;;;-128.00;-1.00;-1.00;105563;1251;1003942;-80
2023/09/10 02:01:57;;;;;;;25.20;17.20;;;;;;;-128.00;-1.00;-1.00;105644;1250;1003784;-80
2023/09/10 02:04:23;;;;;;;28.10;19.00;;;;;;;-128.00;-1.00;-1.00;105577;1250;1004944;-80
2023/09/10 02:06:50;;;;;;;26.00;18.10;;;;;;;-128.00;-1.00;-1.00;105568;1252;1004960;-80
2023/09/10 02:09:16;;;;;;;24.10;17.30;;;;;;;-128.00;-1.00;-1.00;105546;1253;1004447;-80
2023/09/10 02:11:42;;;;;;;26.30;18.00;;;;;;;-128.00;-1.00;-1.00;105519;1252;1004872;-80
2023/09/10 02:14:09;;;;;;;21.00;16.80;;;;;;;-128.00;-1.00;-1.00;105492;1252;1003818;-80
2023/09/10 02:16:35;;;;;;;26.70;18.70;;;;;;;-128.00;-1.00;-1.00;105555;1252;1004972;-80
2023/09/10 02:19:02;;;;;;;25.50;18.70;;;;;;;-128.00;-1.00;-1.00;105509;1252;1004353;-80
2023/09/10 02:21:29;;;;;;;24.10;16.40;;;;;;;-128.00;-1.00;-1.00;105573;1252;1005099;-80
2023/09/10 02:23:55;;;;;;;22.70;16.70;;;;;;;-128.00;-1.00;-1.00;105557;1253;1004234;-81
2023/09/10 02:26:21;;;;;;;21.60;16.40;;;;;;;-128.00;-1.00;-1.00;105554;1252;1004702;-80
2023/09/10 02:28:48;;;;;;;29.30;18.60;;;;;;;-128.00;-1.00;-1.00;105548;1252;1004415;-82
2023/09/10 02:31:14;;;;;;;20.70;16.90;;;;;;;-128.00;-1.00;-1.00;105567;1252;1004362;-80
2023/09/10 02:33:41;;;;;;;23.00;17.60;;;;;;;-128.00;-1.00;-1.00;105543;1252;1003670;-80
2023/09/10 02:36:07;;;;;;;27.50;17.10;;;;;;;-128.00;-1.00;-1.00;105533;1252;1004776;-80
2023/09/10 02:38:33;;;;;;;22.40;16.70;;;;;;;-128.00;-1.00;-1.00;105551;1252;1004138;-80
2023/09/10 02:41:00;;;;;;;20.70;15.80;;;;;;;-128.00;-1.00;-1.00;105527;1252;1047901;-80
2023/09/10 02:43:26;;;;;;;19.80;15.90;;;;;;;-128.00;-1.00;-1.00;105505;1252;1004305;-80
2023/09/10 02:45:53;;;;;;;24.20;16.60;;;;;;;-128.00;-1.00;-1.00;105609;1251;1003798;-80
2023/09/10 02:48:19;;;;;;;22.20;15.50;;;;;;;-128.00;-1.00;-1.00;105596;1250;1004252;-80
2023/09/10 02:50:45;;;;;;;21.40;17.40;;;;;;;-128.00;-1.00;-1.00;105624;1251;1003585;-80
2023/09/10 02:53:12;;;;;;;27.70;18.10;;;;;;;-128.00;-1.00;-1.00;105638;1250;1004530;-80
2023/09/10 02:55:38;;;;;;;21.90;16.70;;;;;;;-128.00;-1.00;-1.00;105679;1250;1004359;-80
2023/09/10 02:58:06;;;;;;;25.90;18.00;;;;;;;-128.00;-1.00;-1.00;105622;1251;1004731;-80
2023/09/10 03:00:32;;;;;;;32.20;18.90;;;;;;;-128.00;-1.00;-1.00;105577;1251;1004582;-80
2023/09/10 03:02:59;;;;;;;26.00;16.70;;;;;;;-128.00;-1.00;-1.00;105610;1250;1004737;-80
2023/09/10 03:05:25;;;;;;;25.60;17.70;;;;;;;-128.00;-1.00;-1.00;105550;1250;1004683;-80
2023/09/10 03:07:53;;;;;;;25.40;18.50;;;;;;;-128.00;-1.00;-1.00;105500;1252;1004738;-80
2023/09/10 03:10:20;;;;;;;31.00;18.30;;;;;;;-128.00;-1.00;-1.00;105681;1252;1003713;-80
2023/09/10 03:12:46;;;;;;;28.40;18.20;;;;;;;-128.00;-1.00;-1.00;105685;1252;1004146;-80
2023/09/10 03:15:16;;;;;;;26.60;17.50;;;;;;;-128.00;-1.00;-1.00;105681;1252;1004059;-80
2023/09/10 03:17:42;;;;;;;22.00;16.80;;;;;;;-128.00;-1.00;-1.00;105687;1252;1046513;-80
2023/09/10 03:20:09;;;;;;;23.40;17.70;;;;;;;-128.00;-1.00;-1.00;105684;1252;1004698;-80
2023/09/10 03:22:36;;;;;;;23.50;16.90;;;;;;;-128.00;-1.00;-1.00;105646;1252;1003512;-80
2023/09/10 03:25:03;;;;;;;24.10;17.70;;;;;;;-128.00;-1.00;-1.00;105684;1252;1004208;-80
2023/09/10 03:27:30;;;;;;;26.50;16.80;;;;;;;-128.00;-1.00;-1.00;105631;1253;1004938;-80
2023/09/10 03:29:56;;;;;;;24.40;16.30;;;;;;;-128.00;-1.00;-1.00;105530;1252;1004060;-80
2023/09/10 03:32:22;;;;;;;26.10;17.10;;;;;;;-128.00;-1.00;-1.00;105570;1253;1003361;-80
2023/09/10 03:34:49;;;;;;;23.70;16.70;;;;;;;-128.00;-1.00;-1.00;105534;1252;1004428;-80
2023/09/10 03:37:15;;;;;;;24.40;16.50;;;;;;;-128.00;-1.00;-1.00;105511;1252;1004067;-80
2023/09/10 03:39:42;;;;;;;24.10;17.30;;;;;;;-128.00;-1.00;-1.00;105428;1253;1004276;-80
2023/09/10 03:42:08;;;;;;;29.10;18.40;;;;;;;-128.00;-1.00;-1.00;105515;1252;1003335;-80
2023/09/10 03:44:34;;;;;;;25.10;17.90;;;;;;;-128.00;-1.00;-1.00;105544;1252;1004062;-80
2023/09/10 03:47:01;;;;;;;28.50;17.40;;;;;;;-128.00;-1.00;-1.00;105669;1251;1004099;-80
2023/09/10 03:49:27;;;;;;;23.40;17.10;;;;;;;-128.00;-1.00;-1.00;105625;1251;1004380;-80
2023/09/10 03:51:56;;;;;;;25.80;17.60;;;;;;;-128.00;-1.00;-1.00;105632;1251;1005249;-80
2023/09/10 03:54:23;;;;;;;20.70;16.30;;;;;;;-128.00;-1.00;-1.00;105600;1250;1004579;-80
2023/09/10 03:56:49;;;;;;;22.70;16.50;;;;;;;-128.00;-1.00;-1.00;105666;1252;1004358;-80
2023/09/10 03:59:15;;;;;;;25.50;17.60;;;;;;;-128.00;-1.00;-1.00;105481;1254;1004223;-80
2023/09/10 04:01:42;;;;;;;26.40;18.60;;;;;;;-128.00;-1.00;-1.00;105546;1253;1005188;-80
2023/09/10 04:04:08;;;;;;;22.80;16.60;;;;;;;-128.00;-1.00;-1.00;105580;1252;1003851;-80
2023/09/10 04:06:35;;;;;;;23.70;16.20;;;;;;;-128.00;-1.00;-1.00;105580;1253;1004476;-80
2023/09/10 04:09:02;;;;;;;24.00;15.70;;;;;;;-128.00;-1.00;-1.00;105507;1255;1004170;-80
2023/09/10 04:11:28;;;;;;;25.30;16.80;;;;;;;-128.00;-1.00;-1.00;105570;1254;1004008;-79
2023/09/10 04:13:55;;;;;;;23.50;17.00;;;;;;;-128.00;-1.00;-1.00;105535;1251;1004000;-80
2023/09/10 04:16:21;;;;;;;21.10;16.20;;;;;;;-128.00;-1.00;-1.00;105548;1253;1005065;-80
2023/09/10 04:18:47;;;;;;;23.90;16.90;;;;;;;-128.00;-1.00;-1.00;105534;1255;1005118;-80
2023/09/10 04:21:14;;;;;;;23.70;15.10;;;;;;;-128.00;-1.00;-1.00;105507;1253;1003421;-79
2023/09/10 04:23:41;;;;;;;21.30;16.10;;;;;;;-128.00;-1.00;-1.00;105496;1253;1004610;-80
2023/09/10 04:26:07;;;;;;;28.40;16.00;;;;;;;-128.00;-1.00;-1.00;105500;1253;1004087;-80
2023/09/10 04:28:33;;;;;;;24.90;15.70;;;;;;;-128.00;-1.00;-1.00;105514;1253;1004529;-80
2023/09/10 04:31:00;;;;;;;23.60;16.70;;;;;;;-128.00;-1.00;-1.00;105481;1253;1004388;-80
2023/09/10 04:33:26;;;;;;;22.30;16.30;;;;;;;-128.00;-1.00;-1.00;105524;1253;1004867;-80
2023/09/10 04:36:01;;;;;;;21.80;15.70;;;;;;;-128.00;-1.00;-1.00;105502;1253;1005233;-80
2023/09/10 04:38:27;;;;;;;23.60;17.10;;;;;;;-128.00;-1.00;-1.00;105468;1253;1058162;-80
2023/09/10 04:40:55;;;;;;;25.60;16.30;;;;;;;-128.00;-1.00;-1.00;105496;1254;1003441;-79
2023/09/10 04:43:22;;;;;;;25.10;16.00;;;;;;;-128.00;-1.00;-1.00;105490;1254;1004619;-80
2023/09/10 04:45:48;;;;;;;27.10;18.80;;;;;;;-128.00;-1.00;-1.00;105492;1253;1005039;-80
2023/09/10 04:48:15;;;;;;;26.20;19.10;;;;;;;-128.00;-1.00;-1.00;105575;1253;1004395;-80
2023/09/10 04:50:41;;;;;;;29.30;20.20;;;;;;;-128.00;-1.00;-1.00;105543;1252;1005344;-80
2023/09/10 04:53:08;;;;;;;25.50;19.90;;;;;;;-128.00;-1.00;-1.00;105515;1253;1004413;-80
2023/09/10 04:55:34;;;;;;;27.40;18.70;;;;;;;-128.00;-1.00;-1.00;105560;1253;1004685;-80
2023/09/10 04:58:00;;;;;;;25.30;17.80;;;;;;;-128.00;-1.00;-1.00;105490;1252;1003754;-80
2023/09/10 05:00:27;;;;;;;24.80;17.10;;;;;;;-128.00;-1.00;-1.00;105619;1252;1004572;-80
2023/09/10 05:02:53;;;;;;;23.60;17.90;;;;;;;-128.00;-1.00;-1.00;105417;1253;1004198;-80
2023/09/10 05:05:20;;;;;;;19.40;14.70;;;;;;;-128.00;-1.00;-1.00;105524;1253;1004304;-80
2023/09/10 05:07:49;;;;;;;20.00;15.30;;;;;;;-128.00;-1.00;-1.00;105396;1253;1004907;-80
2023/09/10 05:10:16;;;;;;;18.00;14.40;;;;;;;-128.00;-1.00;-1.00;105538;1253;1061365;-80
2023/09/10 05:12:43;;;;;;;19.50;15.10;;;;;;;-128.00;-1.00;-1.00;105565;1253;1004323;-80
2023/09/10 05:15:10;;;;;;;19.60;15.40;;;;;;;-128.00;-1.00;-1.00;105520;1254;1003787;-79
2023/09/10 05:17:38;;;;;;;36.00;28.90;;;;;;;-128.00;-1.00;-1.00;105551;1253;1004750;-80
2023/09/10 05:20:06;;;;;;;44.80;35.80;;;;;;;-128.00;-1.00;-1.00;105605;1252;1004367;-80
2023/09/10 05:22:32;;;;;;;32.50;26.60;;;;;;;-128.00;-1.00;-1.00;105486;1253;1004030;-80
2023/09/10 05:24:58;;;;;;;31.50;25.00;;;;;;;-128.00;-1.00;-1.00;105514;1253;1003646;-80
2023/09/10 05:27:25;;;;;;;29.10;25.00;;;;;;;-128.00;-1.00;-1.00;105484;1252;1004501;-80
2023/09/10 05:29:51;;;;;;;19.20;15.00;;;;;;;-128.00;-1.00;-1.00;105453;1253;1004476;-80
2023/09/10 05:32:18;;;;;;;31.60;24.90;;;;;;;-128.00;-1.00;-1.00;105495;1254;1004354;-80
2023/09/10 05:34:44;;;;;;;31.20;24.20;;;;;;;-128.00;-1.00;-1.00;105449;1253;1004632;-80
2023/09/10 05:37:11;;;;;;;27.80;23.60;;;;;;;-128.00;-1.00;-1.00;105518;1253;1004359;-80
2023/09/10 05:39:37;;;;;;;39.20;33.00;;;;;;;-128.00;-1.00;-1.00;105639;1253;1004107;-80
2023/09/10 05:42:03;;;;;;;54.90;43.90;;;;;;;-128.00;-1.00;-1.00;105528;1252;1005431;-80
2023/09/10 05:44:30;;;;;;;39.40;33.20;;;;;;;-128.00;-1.00;-1.00;105685;1253;1004001;-80
2023/09/10 05:46:58;;;;;;;30.10;24.70;;;;;;;-128.00;-1.00;-1.00;105706;1252;1003968;-80
2023/09/10 05:49:25;;;;;;;32.40;26.10;;;;;;;-128.00;-1.00;-1.00;105692;1254;1005020;-80
2023/09/10 05:51:51;;;;;;;38.70;29.40;;;;;;;-128.00;-1.00;-1.00;105568;1254;1005302;-81
2023/09/10 05:54:18;;;;;;;49.80;35.00;;;;;;;-128.00;-1.00;-1.00;105557;1252;1003982;-80
2023/09/10 05:56:44;;;;;;;46.40;35.00;;;;;;;-128.00;-1.00;-1.00;105529;1253;1004653;-80
2023/09/10 05:59:10;;;;;;;44.50;30.80;;;;;;;-128.00;-1.00;-1.00;105583;1251;1003995;-80
2023/09/10 06:01:37;;;;;;;35.90;26.40;;;;;;;-128.00;-1.00;-1.00;105614;1251;1003877;-80
2023/09/10 06:04:03;;;;;;;32.80;24.20;;;;;;;-128.00;-1.00;-1.00;105513;1251;1003749;-81
2023/09/10 06:06:30;;;;;;;36.50;25.30;;;;;;;-128.00;-1.00;-1.00;105630;1251;1005058;-80
2023/09/10 06:08:56;;;;;;;47.70;35.30;;;;;;;-128.00;-1.00;-1.00;105562;1251;1003830;-80
2023/09/10 06:11:23;;;;;;;44.70;36.00;;;;;;;-128.00;-1.00;-1.00;105635;1251;1005142;-80
2023/09/10 06:13:49;;;;;;;46.80;32.70;;;;;;;-128.00;-1.00;-1.00;105617;1251;1004846;-80
2023/09/10 06:16:15;;;;;;;30.80;26.80;;;;;;;-128.00;-1.00;-1.00;105622;1250;1004533;-80
2023/09/10 06:18:42;;;;;;;26.60;19.70;;;;;;;-128.00;-1.00;-1.00;105580;1251;1004617;-80
2023/09/10 06:21:08;;;;;;;25.80;18.40;;;;;;;-128.00;-1.00;-1.00;105536;1251;1003524;-81
2023/09/10 06:23:35;;;;;;;19.80;15.70;;;;;;;-128.00;-1.00;-1.00;105597;1251;1004514;-80
2023/09/10 06:26:02;;;;;;;16.10;12.70;;;;;;;-128.00;-1.00;-1.00;105621;1251;1004519;-81
2023/09/10 06:28:28;;;;;;;16.80;12.50;;;;;;;-128.00;-1.00;-1.00;105555;1251;1005240;-81
2023/09/10 06:30:55;;;;;;;19.30;11.60;;;;;;;-128.00;-1.00;-1.00;105609;1251;1004386;-81
2023/09/10 06:33:21;;;;;;;12.90;10.60;;;;;;;-128.00;-1.00;-1.00;105650;1251;1004518;-81
2023/09/10 06:35:48;;;;;;;14.80;12.20;;;;;;;-128.00;-1.00;-1.00;105791;1251;1003901;-81
2023/09/10 06:38:14;;;;;;;13.20;11.10;;;;;;;-128.00;-1.00;-1.00;105781;1251;1003868;-81
2023/09/10 06:40:41;;;;;;;13.30;10.40;;;;;;;-128.00;-1.00;-1.00;105800;1251;1004267;-81
2023/09/10 06:43:09;;;;;;;17.50;11.20;;;;;;;-128.00;-1.00;-1.00;105755;1251;1004775;-81
2023/09/10 06:45:36;;;;;;;15.00;11.50;;;;;;;-128.00;-1.00;-1.00;105784;1251;1004240;-81
2023/09/10 06:48:03;;;;;;;14.90;11.00;;;;;;;-128.00;-1.00;-1.00;105795;1251;1003962;-82
2023/09/10 06:50:30;;;;;;;15.20;11.00;;;;;;;-128.00;-1.00;-1.00;105654;1251;1004084;-81
2023/09/10 06:52:56;;;;;;;16.30;11.60;;;;;;;-128.00;-1.00;-1.00;105589;1251;1003626;-81
2023/09/10 06:55:23;;;;;;;16.30;11.20;;;;;;;-128.00;-1.00;-1.00;105631;1251;1003993;-82
2023/09/10 06:57:50;;;;;;;11.30;9.60;;;;;;;-128.00;-1.00;-1.00;105559;1251;1004511;-82
2023/09/10 07:00:17;;;;;;;13.40;10.00;;;;;;;-128.00;-1.00;-1.00;105595;1251;1005168;-82
2023/09/10 07:02:44;;;;;;;14.20;11.30;;;;;;;-128.00;-1.00;-1.00;105673;1251;1004270;-81
2023/09/10 07:05:10;;;;;;;13.80;10.30;;;;;;;-128.00;-1.00;-1.00;105555;1253;1004272;-81
2023/09/10 07:07:37;;;;;;;15.40;10.50;;;;;;;-128.00;-1.00;-1.00;105373;1254;1004210;-81
2023/09/10 07:10:03;;;;;;;11.80;9.20;;;;;;;-128.00;-1.00;-1.00;105542;1253;1004516;-81
2023/09/10 07:12:30;;;;;;;11.90;9.20;;;;;;;-128.00;-1.00;-1.00;105541;1254;1004660;-82
2023/09/10 07:14:56;;;;;;;12.80;9.90;;;;;;;-128.00;-1.00;-1.00;105561;1253;1004728;-81
2023/09/10 07:17:22;;;;;;;11.40;9.70;;;;;;;-128.00;-1.00;-1.00;105557;1251;1003574;-82
2023/09/10 07:19:49;;;;;;;10.00;8.50;;;;;;;-128.00;-1.00;-1.00;105612;1251;1004186;-82
2023/09/10 07:22:15;;;;;;;10.70;9.20;;;;;;;-128.00;-1.00;-1.00;105566;1251;1004337;-82
2023/09/10 07:24:42;;;;;;;12.50;10.20;;;;;;;-128.00;-1.00;-1.00;105622;1251;1005285;-82
2023/09/10 07:27:08;;;;;;;10.50;8.30;;;;;;;-128.00;-1.00;-1.00;105594;1251;1003923;-82
2023/09/10 07:29:35;;;;;;;11.00;8.90;;;;;;;-128.00;-1.00;-1.00;105583;1251;1004549;-82
2023/09/10 07:32:01;;;;;;;11.80;8.30;;;;;;;-128.00;-1.00;-1.00;105496;1251;1004147;-82
2023/09/10 07:34:28;;;;;;;10.60;7.90;;;;;;;-128.00;-1.00;-1.00;105400;1258;1005189;-81
2023/09/10 07:36:54;;;;;;;12.20;8.20;;;;;;;-128.00;-1.00;-1.00;105609;1251;1005228;-82
2023/09/10 07:39:22;;;;;;;10.50;7.90;;;;;;;-128.00;-1.00;-1.00;105622;1251;1004395;-82
2023/09/10 07:41:48;;;;;;;10.80;9.50;;;;;;;-128.00;-1.00;-1.00;105591;1251;1004302;-82
2023/09/10 07:44:15;;;;;;;10.00;9.00;;;;;;;-128.00;-1.00;-1.00;105583;1251;1004503;-82
2023/09/10 07:46:41;;;;;;;10.70;7.80;;;;;;;-128.00;-1.00;-1.00;105543;1251;1003605;-82
2023/09/10 07:49:08;;;;;;;9.50;8.30;;;;;;;-128.00;-1.00;-1.00;105623;1251;1003973;-81
2023/09/10 07:51:34;;;;;;;9.60;8.20;;;;;;;-128.00;-1.00;-1.00;105601;1251;1004500;-82
2023/09/10 07:54:01;;;;;;;10.30;7.90;;;;;;;-128.00;-1.00;-1.00;105608;1251;1003793;-82
2023/09/10 07:56:28;;;;;;;9.10;8.00;;;;;;;-128.00;-1.00;-1.00;105570;1250;1004124;-81
2023/09/10 07:58:54;;;;;;;10.70;8.60;;;;;;;-128.00;-1.00;-1.00;105506;1251;1004289;-82
2023/09/10 08:01:21;;;;;;;9.20;7.80;;;;;;;-128.00;-1.00;-1.00;105628;1251;1004027;-82
2023/09/10 08:03:48;;;;;;;8.90;7.90;;;;;;;-128.00;-1.00;-1.00;105641;1251;1005000;-82
2023/09/10 08:06:15;;;;;;;8.80;7.80;;;;;;;-128.00;-1.00;-1.00;105547;1253;1004868;-82
2023/09/10 08:08:41;;;;;;;8.80;6.80;;;;;;;-128.00;-1.00;-1.00;105561;1253;1004107;-82
2023/09/10 08:11:08;;;;;;;9.60;7.90;;;;;;;-128.00;-1.00;-1.00;105582;1254;1004625;-82
2023/09/10 08:13:35;;;;;;;8.00;6.70;;;;;;;-128.00;-1.00;-1.00;105545;1254;1004631;-82
2023/09/10 08:16:01;;;;;;;9.30;6.80;;;;;;;-128.00;-1.00;-1.00;105546;1252;1003484;-82
2023/09/10 08:18:28;;;;;;;10.60;7.50;;;;;;;-128.00;-1.00;-1.00;105565;1252;1004189;-82
2023/09/10 08:20:54;;;;;;;8.00;7.20;;;;;;;-128.00;-1.00;-1.00;105567;1251;1004768;-82
2023/09/10 08:23:20;;;;;;;10.60;7.20;;;;;;;-128.00;-1.00;-1.00;105741;1251;1003798;-82
2023/09/10 08:25:52;;;;;;;10.00;7.40;;;;;;;-128.00;-1.00;-1.00;105828;1251;1003899;-82
2023/09/10 08:28:18;;;;;;;10.60;8.10;;;;;;;-128.00;-1.00;-1.00;105783;1255;1058108;-83
2023/09/10 08:30:45;;;;;;;8.80;6.00;;;;;;;-128.00;-1.00;-1.00;105784;1251;1004335;-83
2023/09/10 08:33:11;;;;;;;8.40;6.70;;;;;;;-128.00;-1.00;-1.00;105834;1251;1004354;-83
2023/09/10 08:35:47;;;;;;;11.70;7.40;;;;;;;-128.00;-1.00;-1.00;105797;1251;1004072;-82
2023/09/10 08:38:14;;;;;;;8.80;6.90;;;;;;;-128.00;-1.00;-1.00;105815;1251;1061454;-82
2023/09/10 08:41:03;;;;;;;8.10;6.60;;;;;;;-128.00;-1.00;-1.00;105753;1251;1004086;-83
2023/09/10 08:43:45;;;;;;;8.90;5.70;;;;;;;-128.00;-1.00;-1.00;105702;1251;1059581;-82
2023/09/10 08:46:12;;;;;;;6.70;6.00;;;;;;;-128.00;-1.00;-1.00;105823;1251;1044545;-83
2023/09/10 08:48:40;;;;;;;7.90;5.80;;;;;;;-128.00;-1.00;-1.00;105536;1251;1003887;-83
2023/09/10 08:51:08;;;;;;;7.50;5.80;;;;;;;-128.00;-1.00;-1.00;105746;1251;1003569;-83
2023/09/10 08:53:38;;;;;;;6.40;5.80;;;;;;;-128.00;-1.00;-1.00;105857;1251;1003846;-83
2023/09/10 08:56:07;;;;;;;6.40;5.80;;;;;;;-128.00;-1.00;-1.00;105722;1251;1059180;-82
2023/09/10 08:58:34;;;;;;;8.80;6.40;;;;;;;-128.00;-1.00;-1.00;105789;1251;1044080;-83
2023/09/10 09:01:01;;;;;;;8.90;5.70;;;;;;;-128.00;-1.00;-1.00;105813;1251;1005150;-83
2023/09/10 09:03:29;;;;;;;7.60;5.70;;;;;;;-128.00;-1.00;-1.00;105710;1251;1004987;-83
2023/09/10 09:06:01;;;;;;;7.10;6.00;;;;;;;-128.00;-1.00;-1.00;105630;1251;1004677;-83
2023/09/10 09:08:30;;;;;;;9.70;6.30;;;;;;;-128.00;-1.00;-1.00;105803;1251;1059580;-82
2023/09/10 09:11:06;;;;;;;6.80;5.80;;;;;;;-128.00;-1.00;-1.00;105809;1250;1003777;-82
2023/09/10 09:13:35;;;;;;;9.40;5.90;;;;;;;-128.00;-1.00;-1.00;105507;1250;1047028;-82
2023/09/10 09:16:04;;;;;;;8.10;5.50;;;;;;;-128.00;-1.00;-1.00;105620;1252;1061364;-82
2023/09/10 09:18:33;;;;;;;10.20;7.40;;;;;;;-128.00;-1.00;-1.00;105451;1251;1058702;-82
2023/09/10 09:21:02;;;;;;;8.50;7.30;;;;;;;-128.00;-1.00;-1.00;105564;1251;1058707;-82
2023/09/10 09:23:31;;;;;;;7.30;6.50;;;;;;;-128.00;-1.00;-1.00;105745;1252;1044348;-82
2023/09/10 09:25:58;;;;;;;10.10;6.80;;;;;;;-128.00;-1.00;-1.00;105748;1252;1046589;-81
2023/09/10 09:28:25;;;;;;;8.00;5.90;;;;;;;-128.00;-1.00;-1.00;105727;1255;1004306;-81
2023/09/10 09:30:52;;;;;;;9.00;7.40;;;;;;;-128.00;-1.00;-1.00;105618;1251;1004425;-82
2023/09/10 09:33:18;;;;;;;7.20;5.10;;;;;;;-128.00;-1.00;-1.00;105567;1251;1004051;-82
2023/09/10 09:35:46;;;;;;;6.10;5.50;;;;;;;-128.00;-1.00;-1.00;105497;1251;1004676;-81
2023/09/10 09:38:13;;;;;;;7.40;6.00;;;;;;;-128.00;-1.00;-1.00;105726;1251;1004423;-81
2023/09/10 09:40:40;;;;;;;10.80;6.10;;;;;;;-128.00;-1.00;-1.00;105813;1251;1003633;-82
2023/09/10 09:43:06;;;;;;;10.50;7.20;;;;;;;-128.00;-1.00;-1.00;105802;1251;1004735;-82
2023/09/10 09:45:34;;;;;;;9.00;6.10;;;;;;;-128.00;-1.00;-1.00;105766;1255;1004273;-82
2023/09/10 09:48:01;;;;;;;9.80;5.90;;;;;;;-128.00;-1.00;-1.00;105695;1251;1004632;-82
2023/09/10 09:50:28;;;;;;;8.60;5.40;;;;;;;-128.00;-1.00;-1.00;105491;1251;1003513;-82
2023/09/10 09:52:54;;;;;;;9.00;6.10;;;;;;;-128.00;-1.00;-1.00;105594;1251;1003696;-82
2023/09/10 09:55:21;;;;;;;7.50;5.40;;;;;;;-128.00;-1.00;-1.00;105604;1251;1004611;-81
2023/09/10 09:57:51;;;;;;;6.60;5.50;;;;;;;-128.00;-1.00;-1.00;105423;1251;1004400;-82
2023/09/10 10:00:17;;;;;;;7.70;6.40;;;;;;;-128.00;-1.00;-1.00;105604;1251;1045161;-82
2023/09/10 10:02:44;;;;;;;7.40;5.50;;;;;;;-128.00;-1.00;-1.00;105660;1251;1003864;-81
2023/09/10 10:05:10;;;;;;;7.10;5.10;;;;;;;-128.00;-1.00;-1.00;105597;1252;1005209;-82
2023/09/10 10:07:37;;;;;;;8.70;5.70;;;;;;;-128.00;-1.00;-1.00;105511;1252;1004417;-81
2023/09/10 10:10:07;;;;;;;7.60;5.70;;;;;;;-128.00;-1.00;-1.00;105529;1251;1005086;-81
2023/09/10 10:12:34;;;;;;;6.20;5.30;;;;;;;-128.00;-1.00;-1.00;105605;1256;1043497;-82
2023/09/10 10:15:00;;;;;;;10.00;6.00;;;;;;;-128.00;-1.00;-1.00;105601;1256;1004560;-82
2023/09/10 10:17:27;;;;;;;9.40;5.80;;;;;;;-128.00;-1.00;-1.00;105501;1253;1004046;-81
2023/09/10 10:19:53;;;;;;;7.40;5.90;;;;;;;-128.00;-1.00;-1.00;105484;1251;1005209;-82
2023/09/10 10:22:20;;;;;;;8.70;5.30;;;;;;;-128.00;-1.00;-1.00;105500;1253;1003964;-81
2023/09/10 10:24:47;;;;;;;6.50;5.40;;;;;;;-128.00;-1.00;-1.00;105724;1251;1004379;-81
2023/09/10 10:27:14;;;;;;;7.70;5.60;;;;;;;-128.00;-1.00;-1.00;105812;1253;1004497;-81
2023/09/10 10:29:40;;;;;;;8.20;6.20;;;;;;;-128.00;-1.00;-1.00;105813;1251;1004662;-81
2023/09/10 10:32:12;;;;;;;9.60;6.00;;;;;;;-128.00;-1.00;-1.00;105788;1251;1004227;-81
2023/09/10 10:34:41;;;;;;;8.40;6.00;;;;;;;-128.00;-1.00;-1.00;105670;1251;1059852;-81
2023/09/10 10:37:24;;;;;;;7.40;5.70;;;;;;;-128.00;-1.00;-1.00;105530;1256;1043981;-81
2023/09/10 10:40:05;;;;;;;9.80;5.80;;;;;;;-128.00;-1.00;-1.00;105524;1251;1047593;-81
2023/09/10 10:42:36;;;;;;;10.30;6.10;;;;;;;-128.00;-1.00;-1.00;105814;1251;1062342;-81
2023/09/10 10:45:05;;;;;;;7.20;5.70;;;;;;;-128.00;-1.00;-1.00;105534;1251;1057823;-81
2023/09/10 10:47:37;;;;;;;9.00;6.20;;;;;;;-128.00;-1.00;-1.00;105698;1251;1059693;-82
2023/09/10 10:50:04;;;;;;;8.20;6.10;;;;;;;-128.00;-1.00;-1.00;105648;1251;1044455;-80
2023/09/10 10:52:31;;;;;;;6.60;5.70;;;;;;;-128.00;-1.00;-1.00;105555;1251;1004572;-81
2023/09/10 10:54:57;;;;;;;8.30;6.00;;;;;;;-128.00;-1.00;-1.00;105613;1251;1004210;-82
2023/09/10 10:57:24;;;;;;;6.40;5.40;;;;;;;-128.00;-1.00;-1.00;105570;1251;1004308;-82
2023/09/10 10:59:50;;;;;;;6.30;5.30;;;;;;;-128.00;-1.00;-1.00;105459;1251;1004554;-82
2023/09/10 11:02:24;;;;;;;8.90;5.10;;;;;;;-128.00;-1.00;-1.00;105624;1251;1003658;-82
2023/09/10 11:04:58;;;;;;;8.50;6.20;;;;;;;-128.00;-1.00;-1.00;105618;1250;1046262;-82
2023/09/10 11:07:26;;;;;;;7.40;5.70;;;;;;;-128.00;-1.00;-1.00;105600;1251;1062652;-82
2023/09/10 11:09:53;;;;;;;8.40;5.10;;;;;;;-128.00;-1.00;-1.00;105608;1255;1003404;-82